SondeTracker

Meteorological Radiosondes Database

Operations

Sounding was ended - last measurement: 2021-02-28 00:55:30z

MAP
About Radiosonde

Number: S1351054

Launch Site: Galeão (BR)

Type: RS41

AUX: NO

Frequency: 405.300 MHz

Max Speed: 61 km/h at 14953 m

Average Speed: 32.36 km/h

Max Altitude: 20537 m

Average Ascent Speed: 7.80 m/s

Average Descent Speed: 6.66 m/s

Status: UNKNOWN

Status Changes
Launch Site Type AUX Frequency Status Finder Landing Point Description Changes made by
APRS Statistics

Received Frames: 78

First Frame [UTC]: 2021-02-27 23:59:00z

Last Frame [UTC]: 2021-02-28 00:55:30z

Receivers: PY1TCM

Flight Time: 00:56:30 h

Distance From First Measurement: 4.58 km

Nearest City: [0.00 km]

Nearest Hunter: py1tcm [94.85 km]

Ground Altitude: 162 m

Distance from QTH: 0.00 km

APRS Data
Receiver Number Date/Time [UTC] φ λ Course [°] Speed [km/h] Altitude [m] Description
PY1TCMS13510542021-02-28 00:55:30-22.9335-43.2516171565959Clb=-3.6m/s t=-9.9C h=55.1% p=494.0hPa 405.300 MHz Type=RS41-SGP Radiosonde http://sondehub.org/S1351054 http://radiosondy.info/
PY1TCMS13510542021-02-28 00:55:00-22.9322-43.2519166525990Clb=-2.7m/s t=-9.9C h=64.6% p=492.0hPa 405.300 MHz Type=RS41-SGP Radiosonde http://sondehub.org/S1351054 http://radiosondy.info/
PY1TCMS13510542021-02-28 00:52:00-22.9177-43.256175246741Clb=-4.6m/s t=-13.2C h=97.4% p=446.3hPa 405.300 MHz Type=RS41-SGP Radiosonde http://sondehub.org/S1351054 http://radiosondy.info
PY1TCMS13510542021-02-28 00:51:30-22.9166-43.2562158206838Clb=-3.7m/s t=-13.6C h=98.2% p=440.6hPa 405.300 MHz Type=RS41-SGP Radiosonde http://sondehub.org/S1351054 http://radiosondy.info
PY1TCMS13510542021-02-28 00:49:00-22.911-43.255421767543Clb=-4.8m/s t=-17.1C h=76.1% p=401.6hPa 405.300 MHz Type=RS41-SGP Radiosonde http://sondehub.org/S1351054 http://radiosondy.info
PY1TCMS13510542021-02-28 00:48:00-22.9101-43.2552162137721Clb=-4.6m/s t=-18.3C h=77.6% p=392.3hPa 405.300 MHz Type=RS41-SGP Radiosonde http://sondehub.org/S1351054 http://radiosondy.info
PY1TCMS13510542021-02-28 00:47:30-22.9091-43.2554160157851Clb=-3.7m/s t=-19.3C h=79.7% p=385.4hPa 405.300 MHz Type=RS41-SGP Radiosonde http://sondehub.org/S1351054 http://radiosondy.info
PY1TCMS13510542021-02-28 00:47:00-22.9079-43.2557167177975Clb=-4.1m/s t=-20.3C h=78.1% p=379.1hPa 405.300 MHz Type=RS41-SGP Radiosonde http://sondehub.org/S1351054 http://radiosondy.info
PY1TCMS13510542021-02-28 00:46:30-22.9066-43.2561160178105Clb=-4.6m/s t=-21.2C h=75.8% p=372.5hPa 405.300 MHz Type=RS41-SGP Radiosonde http://sondehub.org/S1351054 http://radiosondy.info
PY1TCMS13510542021-02-28 00:43:30-22.8968-43.2582147318934Clb=-4.2m/s t=-26.9C h=62.9% p=332.5hPa 405.300 MHz Type=RS41-SGP Radiosonde http://sondehub.org/S1351054 http://radiosondy.info
PY1TCMS13510542021-02-28 00:42:00-22.8904-43.2622145339359Clb=-4.4m/s t=-30.7C h=70.3% p=313.6hPa 405.300 MHz Type=RS41-SGP Radiosonde http://sondehub.org/S1351054 http://radiosondy.info
PY1TCMS13510542021-02-28 00:41:30-22.8886-43.2633153339459Clb=-4.7m/s t=-31.5C h=45.2% p=309.1hPa 405.300 MHz Type=RS41-SGP Radiosonde http://sondehub.org/S1351054 http://radiosondy.info
PY1TCMS13510542021-02-28 00:41:00-22.8863-43.2647149339598Clb=-4.7m/s t=-32.6C h=33.0% p=303.1hPa 405.300 MHz Type=RS41-SGP Radiosonde http://sondehub.org/S1351054 http://radiosondy.info
PY1TCMS13510542021-02-28 00:40:00-22.8813-43.2673157379858Clb=-4.2m/s t=-35.0C h=70.8% p=292.1hPa 405.300 MHz Type=RS41-SGP Radiosonde http://sondehub.org/S1351054 http://radiosondy.info
PY1TCMS13510542021-02-28 00:39:30-22.8785-43.2685158399979Clb=-4.0m/s t=-36.1C h=75.0% p=287.2hPa 405.300 MHz Type=RS41-SGP Radiosonde http://sondehub.org/S1351054 http://radiosondy.info
PY1TCMS13510542021-02-28 00:38:30-22.8715-43.27171524410303Clb=-4.6m/s t=-39.1C h=47.7% p=274.1hPa 405.300 MHz Type=RS41-SGP Radiosonde http://sondehub.org/S1351054 http://radiosondy.info
PY1TCMS13510542021-02-28 00:38:00-22.8703-43.27241504410356Clb=-4.7m/s t=-39.5C h=33.5% p=271.9hPa 405.300 MHz Type=RS41-SGP Radiosonde http://sondehub.org/S1351054 http://radiosondy.info
PY1TCMS13510542021-02-28 00:37:30-22.8675-43.27441454410492Clb=-4.5m/s t=-40.4C h=20.4% p=266.6hPa 405.300 MHz Type=RS41-SGP Radiosonde http://sondehub.org/S1351054 http://radiosondy.info
PY1TCMS13510542021-02-28 00:37:00-22.8645-43.27671434410639Clb=-4.7m/s t=-41.8C h=34.5% p=261.0hPa 405.300 MHz Type=RS41-SGP Radiosonde http://sondehub.org/S1351054 http://radiosondy.info
PY1TCMS13510542021-02-28 00:36:30-22.8617-43.27871485010768Clb=-4.5m/s t=-42.8C h=27.1% p=256.1hPa 405.300 MHz Type=RS41-SGP Radiosonde http://sondehub.org/S1351054 http://radiosondy.info
PY1TCMS13510542021-02-28 00:35:30-22.8553-43.28341455411044Clb=-4.9m/s t=-45.3C h=18.9% p=245.7hPa 405.300 MHz Type=RS41-SGP Radiosonde http://sondehub.org/S1351054 http://radiosondy.info
PY1TCMS13510542021-02-28 00:35:00-22.8521-43.28571464811196Clb=-4.7m/s t=-46.4C h=12.0% p=240.2hPa 405.300 MHz Type=RS41-SGP Radiosonde http://sondehub.org/S1351054 http://radiosondy.info
PY1TCMS13510542021-02-28 00:34:30-22.8486-43.28761575411400Clb=-8.8m/s t=-48.2C h=39.2% p=233.1hPa 405.300 MHz Type=RS41-SGP Radiosonde http://sondehub.org/S1351054 http://radiosondy.info
PY1TCMS13510542021-02-28 00:34:00-22.8449-43.28951555411599Clb=-8.0m/s t=-50.1C h=48.0% p=226.0hPa 405.300 MHz Type=RS41-SGP Radiosonde http://sondehub.org/S1351054 http://radiosondy.info
PY1TCMS13510542021-02-28 00:33:30-22.8411-43.29121585711835Clb=-12.6m/s t=-52.3C h=59.0% p=218.1hPa 405.300 MHz Type=RS41-SGP Radiosonde http://sondehub.org/S1351054 http://radiosondy.inf
PY1TCMS13510542021-02-28 00:32:00-22.8337-43.29521881912944Clb=-12.2m/s t=-57.3C h=8.8% p=183.3hPa 405.300 MHz Type=RS41-SGP Radiosonde http://sondehub.org/S1351054 http://radiosondy.info
PY1TCMS13510542021-02-28 00:31:30-22.8331-43.295773713329Clb=-10.8m/s t=-58.8C h=6.6% p=172.5hPa 405.300 MHz Type=RS41-SGP Radiosonde http://sondehub.org/S1351054 http://radiosondy.info
PY1TCMS13510542021-02-28 00:31:00-22.8332-43.2963831113555Clb=-9.0m/s t=-60.2C h=6.8% p=166.4hPa 405.300 MHz Type=RS41-SGP Radiosonde http://sondehub.org/S1351054 http://radiosondy.info/
PY1TCMS13510542021-02-28 00:30:30-22.8337-43.2972431713808Clb=-8.8m/s t=-60.9C h=7.2% p=159.8hPa 405.300 MHz Type=RS41-SGP Radiosonde http://sondehub.org/S1351054 http://radiosondy.info/
PY1TCMS13510542021-02-28 00:30:00-22.8354-43.2983243514058Clb=-7.9m/s t=-62.6C h=7.7% p=153.5hPa 405.300 MHz Type=RS41-SGP Radiosonde http://sondehub.org/S1351054 http://radiosondy.info/
PY1TCMS13510542021-02-28 00:29:30-22.8386-43.2994134614292Clb=-7.3m/s t=-63.9C h=8.1% p=147.8hPa 405.300 MHz Type=RS41-SGP Radiosonde http://sondehub.org/S1351054 http://radiosondy.info/
PY1TCMS13510542021-02-28 00:29:00-22.8421-43.3005195014533Clb=-8.5m/s t=-65.4C h=8.4% p=142.1hPa 405.300 MHz Type=RS41-SGP Radiosonde http://sondehub.org/S1351054 http://radiosondy.info/
PY1TCMS13510542021-02-28 00:28:00-22.85-43.30153454615068Clb=-9.7m/s t=-68.6C h=10.0% p=130.1hPa 405.300 MHz Type=RS41-SGP Radiosonde http://sondehub.org/S1351054 http://radiosondy.info
PY1TCMS13510542021-02-28 00:27:30-22.8528-43.30023243515341Clb=-9.7m/s t=-70.3C h=11.2% p=124.3hPa 405.300 MHz Type=RS41-SGP Radiosonde http://sondehub.org/S1351054 http://radiosondy.info
PY1TCMS13510542021-02-28 00:27:00-22.8544-43.29863011915640Clb=-9.8m/s t=-71.6C h=11.9% p=118.2hPa 405.300 MHz Type=RS41-SGP Radiosonde http://sondehub.org/S1351054 http://radiosondy.info
PY1TCMS13510542021-02-28 00:26:30-22.8552-43.297901515929Clb=-9.4m/s t=-73.1C h=12.3% p=112.6hPa 405.300 MHz Type=RS41-SGP Radiosonde http://sondehub.org/S1351054 http://radiosondy.info
PY1TCMS13510542021-02-28 00:25:30-22.8574-43.2963041116504Clb=-9.7m/s t=-76.1C h=12.5% p=102.0hPa 405.300 MHz Type=RS41-SGP Radiosonde http://sondehub.org/S1351054 http://radiosondy.info
PY1TCMS13510542021-02-28 00:25:00-22.8589-43.29523373016791Clb=-9.8m/s t=-76.4C h=11.6% p=97.1hPa 405.300 MHz Type=RS41-SGP Radiosonde http://sondehub.org/S1351054 http://radiosondy.info/
PY1TCMS13510542021-02-28 00:24:00-22.8631-43.29213193517381Clb=-10.2m/s t=-77.1C h=11.0% p=87.6hPa 405.300 MHz Type=RS41-SGP Radiosonde http://sondehub.org/S1351054 http://radiosondy.info
PY1TCMS13510542021-02-28 00:23:30-22.8647-43.28992971917695Clb=-11.2m/s t=-75.8C h=9.1% p=83.0hPa 405.300 MHz Type=RS41-SGP Radiosonde http://sondehub.org/S1351054 http://radiosondy.info/
PY1TCMS13510542021-02-28 00:23:00-22.866-43.28943312618020Clb=-11.6m/s t=-73.2C h=7.6% p=78.5hPa 405.300 MHz Type=RS41-SGP Radiosonde http://sondehub.org/S1351054 http://radiosondy.info/
PY1TCMS13510542021-02-28 00:22:30-22.8675-43.28873181718355Clb=-11.6m/s t=-70.9C h=6.2% p=74.1hPa 405.300 MHz Type=RS41-SGP Radiosonde http://sondehub.org/S1351054 http://radiosondy.info/
PY1TCMS13510542021-02-28 00:22:00-22.8685-43.28822418705Clb=-12.3m/s t=-71.0C h=5.7% p=69.9hPa 405.300 MHz Type=RS41-SGP Radiosonde http://sondehub.org/S1351054 http://radiosondy.info/
PY1TCMS13510542021-02-28 00:21:30-22.8689-43.28743092619063Clb=-13.1m/s t=-71.5C h=5.8% p=65.8hPa 405.300 MHz Type=RS41-SGP Radiosonde http://sondehub.org/S1351054 http://radiosondy.info/
PY1TCMS13510542021-02-28 00:20:30-22.8693-43.28192982619804Clb=-13.8m/s t=-68.4C h=4.4% p=58.1hPa 405.300 MHz Type=RS41-SGP Radiosonde http://sondehub.org/S1351054 http://radiosondy.info/
PY1TCMS13510542021-02-28 00:20:00-22.87-43.27892764620180Clb=-7.5m/s t=-67.2C h=4.1% p=54.5hPa 405.300 MHz Type=RS41-SGP Radiosonde http://sondehub.org/S1351054 http://radiosondy.info/s
PY1TCMS13510542021-02-28 00:19:30-22.8702-43.27542745020532Clb=-16.0m/s t=-66.5C h=4.2% p=51.5hPa 405.300 MHz Type=RS41-SGP Radiosonde http://sondehub.org/S1351054 http://radiosondy.info/
PY1TCMS13510542021-02-28 00:19:00-22.87-43.27152755220537Clb=9.3m/s t=-66.7C h=4.3% p=51.4hPa 405.300 MHz Type=RS41-SGP Radiosonde http://sondehub.org/S1351054 http://radiosondy.info/so
PY1TCMS13510542021-02-28 00:18:30-22.8704-43.26782593320326Clb=7.2m/s t=-67.5C h=4.8% p=53.2hPa 405.300 MHz Type=RS41-SGP Radiosonde http://sondehub.org/S1351054 http://radiosondy.info/so
PY1TCMS13510542021-02-28 00:18:00-22.8703-43.26422773920110Clb=8.5m/s t=-67.2C h=5.1% p=55.1hPa 405.300 MHz Type=RS41-SGP Radiosonde http://sondehub.org/S1351054 http://radiosondy.info/so
PY1TCMS13510542021-02-28 00:17:30-22.8711-43.26163022219889Clb=7.1m/s t=-68.3C h=5.9% p=57.2hPa 405.300 MHz Type=RS41-SGP Radiosonde http://sondehub.org/S1351054 http://radiosondy.info/so
PY1TCMS13510542021-02-28 00:17:00-22.8715-43.25962662419672Clb=7.8m/s t=-69.4C h=6.8% p=59.3hPa 405.300 MHz Type=RS41-SGP Radiosonde http://sondehub.org/S1351054 http://radiosondy.info/so
PY1TCMS13510542021-02-28 00:16:00-22.8712-43.25392782019228Clb=10.1m/s t=-70.5C h=7.8% p=63.9hPa 405.300 MHz Type=RS41-SGP Radiosonde http://sondehub.org/S1351054 http://radiosondy.info/s
PY1TCMS13510542021-02-28 00:15:30-22.8719-43.25173081719008Clb=6.8m/s t=-71.6C h=8.5% p=66.3hPa 405.300 MHz Type=RS41-SGP Radiosonde http://sondehub.org/S1351054 http://radiosondy.info/so
PY1TCMS13510542021-02-28 00:15:00-22.8723-43.251259418785Clb=8.7m/s t=-71.0C h=9.1% p=68.9hPa 405.300 MHz Type=RS41-SGP Radiosonde http://sondehub.org/S1351054 http://radiosondy.info/so
PY1TCMS13510542021-02-28 00:14:30-22.8728-43.25143352618567Clb=4.8m/s t=-71.0C h=9.7% p=71.5hPa 405.300 MHz Type=RS41-SGP Radiosonde http://sondehub.org/S1351054 http://radiosondy.info/so
PY1TCMS13510542021-02-28 00:14:00-22.8741-43.25013172018360Clb=3.4m/s t=-71.2C h=11.2% p=74.0hPa 405.300 MHz Type=RS41-SGP Radiosonde http://sondehub.org/S1351054 http://radiosondy.info/s
PY1TCMS13510542021-02-28 00:13:30-22.8755-43.24952862018144Clb=6.4m/s t=-73.1C h=12.6% p=76.8hPa 405.300 MHz Type=RS41-SGP Radiosonde http://sondehub.org/S1351054 http://radiosondy.info/s
PY1TCMS13510542021-02-28 00:13:00-22.8775-43.2493272017934Clb=5.1m/s t=-75.3C h=14.2% p=79.6hPa 405.300 MHz Type=RS41-SGP Radiosonde http://sondehub.org/S1351054 http://radiosondy.info/s
PY1TCMS13510542021-02-28 00:12:30-22.8784-43.24813102617707Clb=7.3m/s t=-76.0C h=14.6% p=82.7hPa 405.300 MHz Type=RS41-SGP Radiosonde http://sondehub.org/S1351054 http://radiosondy.info/s
PY1TCMS13510542021-02-28 00:12:00-22.8799-43.24573224417490Clb=7.8m/s t=-77.4C h=14.6% p=85.9hPa 405.300 MHz Type=RS41-SGP Radiosonde http://sondehub.org/S1351054 http://radiosondy.info/s
PY1TCMS13510542021-02-28 00:11:30-22.8816-43.2443152617279Clb=3.7m/s t=-77.2C h=14.7% p=89.2hPa 405.300 MHz Type=RS41-SGP Radiosonde http://sondehub.org/S1351054 http://radiosondy.info/s
PY1TCMS13510542021-02-28 00:10:30-22.8855-43.241211516856Clb=7.4m/s t=-76.8C h=13.7% p=96.0hPa 405.300 MHz Type=RS41-SGP Radiosonde http://sondehub.org/S1351054 http://radiosondy.info/s
PY1TCMS13510542021-02-28 00:10:00-22.887-43.24063411716618Clb=8.0m/s t=-76.8C h=13.5% p=100.0hPa 405.300 MHz Type=RS41-SGP Radiosonde http://sondehub.org/S1351054 http://radiosondy.info/
PY1TCMS13510542021-02-28 00:09:30-22.8875-43.23932961916377Clb=12.6m/s t=-75.1C h=12.5% p=104.2hPa 405.300 MHz Type=RS41-SGP Radiosonde http://sondehub.org/S1351054 http://radiosondy.info
PY1TCMS13510542021-02-28 00:09:00-22.8884-43.23762993516136Clb=6.2m/s t=-73.9C h=11.3% p=108.6hPa 405.300 MHz Type=RS41-SGP Radiosonde http://sondehub.org/S1351054 http://radiosondy.info/
PY1TCMS13510542021-02-28 00:08:00-22.8906-43.23633042615657Clb=10.1m/s t=-71.7C h=9.8% p=117.8hPa 405.300 MHz Type=RS41-SGP Radiosonde http://sondehub.org/S1351054 http://radiosondy.info/
PY1TCMS13510542021-02-28 00:07:30-22.892-43.23483123315424Clb=5.4m/s t=-70.6C h=9.0% p=122.5hPa 405.300 MHz Type=RS41-SGP Radiosonde http://sondehub.org/S1351054 http://radiosondy.info/s
PY1TCMS13510542021-02-28 00:07:00-22.8948-43.23343265215198Clb=9.1m/s t=-69.2C h=8.5% p=127.2hPa 405.300 MHz Type=RS41-SGP Radiosonde http://sondehub.org/S1351054 http://radiosondy.info/s
PY1TCMS13510542021-02-28 00:06:30-22.8983-43.232776114953Clb=10.1m/s t=-67.6C h=8.2% p=132.5hPa 405.300 MHz Type=RS41-SGP Radiosonde http://sondehub.org/S1351054 http://radiosondy.info/
PY1TCMS13510542021-02-28 00:06:00-22.9024-43.2333363914730Clb=6.6m/s t=-66.7C h=8.5% p=137.6hPa 405.300 MHz Type=RS41-SGP Radiosonde http://sondehub.org/S1351054 http://radiosondy.info/s
PY1TCMS13510542021-02-28 00:05:30-22.9058-43.2345324814501Clb=10.3m/s t=-65.4C h=8.1% p=142.8hPa 405.300 MHz Type=RS41-SGP Radiosonde http://sondehub.org/S1351054 http://radiosondy.info/
PY1TCMS13510542021-02-28 00:05:00-22.9097-43.236304614252Clb=9.3m/s t=-64.1C h=8.0% p=148.7hPa 405.300 MHz Type=RS41-SGP Radiosonde http://sondehub.org/S1351054 http://radiosondy.info/s
PY1TCMS13510542021-02-28 00:04:00-22.9127-43.23881161313719Clb=9.3m/s t=-273.0C h=-1.0% p=-1.0hPa 405.300 MHz Type=RS41 Radiosonde http://sondehub.org/S1351054 http://radiosondy.info/sond
PY1TCMS13510542021-02-28 00:00:30-22.9024-43.24831515711795Clb=4.0m/s t=-273.0C h=-1.0% p=219.2hPa 405.300 MHz Type=RS41-SGP Radiosonde http://sondehub.org/S1351054 http://radiosondy.info
PY1TCMS13510542021-02-28 00:00:00-22.9018-43.24861535711755Clb=9.5m/s t=-273.0C h=-1.0% p=220.5hPa 405.300 MHz Type=RS41-SGP Radiosonde http://sondehub.org/S1351054 http://radiosondy.info
PY1TCMS13510542021-02-27 23:59:30-22.8975-43.25041585411519Clb=5.3m/s t=-273.0C h=-1.0% p=-1.0hPa 405.300 MHz Type=RS41-SGP Radiosonde http://sondehub.org/S1351054 http://radiosondy.info/
PY1TCMS13510542021-02-27 23:59:00-22.8923-43.25281525011172Clb=8.1m/s t=-273.0C h=-1.0% p=-1.0hPa 405.300 MHz Type=RS41 Radiosonde http://sondehub.org/S1351054 http://radiosondy.info/sond